createdAt,value
2019-04-22T00:02:12.867Z,5.38
2019-04-22T00:04:51.293Z,5.19
2019-04-22T00:07:40.333Z,4.92
2019-04-22T00:12:41.820Z,4.74
2019-04-22T00:15:07.463Z,4.58
2019-04-22T00:17:45.409Z,4.46
2019-04-22T00:20:14.456Z,4.76
2019-04-22T00:22:59.775Z,4.50
2019-04-22T00:25:19.728Z,4.42
2019-04-22T00:27:48.982Z,4.36
2019-04-22T00:30:22.584Z,4.41
2019-04-22T00:33:11.712Z,4.44
2019-04-22T00:35:35.465Z,4.26
2019-04-22T00:40:44.583Z,4.18
2019-04-22T00:43:13.600Z,4.18
2019-04-22T00:45:44.739Z,4.15
2019-04-22T00:48:21.105Z,4.20
2019-04-22T00:50:55.489Z,4.07
2019-04-22T00:53:23.909Z,4.06
2019-04-22T00:56:21.947Z,4.02
2019-04-22T00:58:43.904Z,4.04
2019-04-22T01:01:20.732Z,4.04
2019-04-22T01:03:50.455Z,4.00
2019-04-22T01:09:00.245Z,3.95
2019-04-22T01:11:22.837Z,3.93
2019-04-22T01:13:49.518Z,3.83
2019-04-22T01:16:23.880Z,3.81
2019-04-22T01:18:55.865Z,3.76
2019-04-22T01:21:28.893Z,3.78
2019-04-22T01:23:52.169Z,3.72
2019-04-22T01:26:25.566Z,3.72
2019-04-22T01:28:59.572Z,3.75
2019-04-22T01:31:19.620Z,3.93
2019-04-22T01:33:58.551Z,3.83
2019-04-22T01:36:38.741Z,3.61
2019-04-22T01:39:10.457Z,3.70
2019-04-22T01:44:34.435Z,3.47
2019-04-22T01:46:50.825Z,3.35
2019-04-22T01:49:23.215Z,3.34
2019-04-22T01:52:01.823Z,3.30
2019-04-22T01:54:31.003Z,3.31
2019-04-22T01:56:53.952Z,3.20
2019-04-22T01:59:20.089Z,3.15
2019-04-22T02:01:56.144Z,3.07
2019-04-22T02:04:31.972Z,3.02
2019-04-22T02:07:02.069Z,2.75
2019-04-22T02:09:38.399Z,3.01
2019-04-22T02:12:08.025Z,2.93
2019-04-22T02:14:39.426Z,2.90
2019-04-22T02:17:10.835Z,2.97
2019-04-22T02:19:37.166Z,2.98
2019-04-22T02:22:07.330Z,2.96
2019-04-22T02:24:47.049Z,2.95
2019-04-22T02:27:20.183Z,2.99
2019-04-22T02:32:28.249Z,2.90
2019-04-22T02:35:01.972Z,2.81
2019-04-22T02:37:18.586Z,2.73
2019-04-22T02:39:55.075Z,2.75
2019-04-22T02:42:21.560Z,2.69
2019-04-22T02:50:01.872Z,2.64
2019-04-22T02:52:30.988Z,2.66
2019-04-22T02:55:03.081Z,2.40
2019-04-22T03:00:09.735Z,2.36
2019-04-22T03:02:43.879Z,2.38
2019-04-22T03:05:12.963Z,2.31
2019-04-22T03:07:41.081Z,2.17
2019-04-22T03:10:16.596Z,2.13
2019-04-22T03:12:33.295Z,2.09
2019-04-22T03:15:07.943Z,2.12
2019-04-22T03:22:47.418Z,2.06
2019-04-22T03:27:42.774Z,2.11
2019-04-22T03:37:53.389Z,2.05
2019-04-22T03:48:01.921Z,1.94
2019-04-22T03:50:28.106Z,1.86
2019-04-22T03:53:07.193Z,1.99
2019-04-22T03:55:35.048Z,1.83
2019-04-22T03:57:59.190Z,1.69
2019-04-22T04:00:47.677Z,1.71
2019-04-22T04:08:26.337Z,1.68
2019-04-22T04:13:20.535Z,1.78
2019-04-22T04:15:36.470Z,1.82
2019-04-22T04:18:10.995Z,1.81
2019-04-22T04:21:01.096Z,1.91
2019-04-22T04:23:31.050Z,1.84
2019-04-22T04:25:46.577Z,1.87
2019-04-22T04:30:48.649Z,1.77
2019-04-22T04:33:31.115Z,1.84
2019-04-22T04:35:54.492Z,1.85
2019-04-22T04:38:21.169Z,1.91
2019-04-22T04:40:58.218Z,2.13
2019-04-22T04:43:26.294Z,2.04
2019-04-22T04:48:44.752Z,2.07
2019-04-22T04:53:24.977Z,2.21
2019-04-22T04:56:11.887Z,2.37
2019-04-22T04:58:46.897Z,2.49
2019-04-22T05:01:14.854Z,2.75
2019-04-22T05:03:56.850Z,2.90
2019-04-22T05:06:12.600Z,2.86
2019-04-22T05:11:18.616Z,3.08
2019-04-22T05:13:49.263Z,3.16
2019-04-22T05:16:25.594Z,3.28
2019-04-22T05:18:49.128Z,3.47
2019-04-22T05:21:16.458Z,3.63
2019-04-22T05:23:43.939Z,3.81
2019-04-22T05:26:22.665Z,4.17
2019-04-22T05:28:44.895Z,5.12
2019-04-22T05:31:15.999Z,8.28
2019-04-22T05:33:47.943Z,9.57
2019-04-22T05:36:26.409Z,11.49
2019-04-22T05:38:58.226Z,13.42
2019-04-22T05:41:26.645Z,14.50
2019-04-22T05:43:58.140Z,15.25
2019-04-22T05:46:22.504Z,15.79
2019-04-22T05:49:15.100Z,16.28
2019-04-22T05:51:31.249Z,18.06
2019-04-22T05:54:05.495Z,18.72
2019-04-22T05:56:33.456Z,17.99
2019-04-22T06:01:51.521Z,20.10
2019-04-22T06:04:05.890Z,21.05
2019-04-22T06:06:29.280Z,19.07
2019-04-22T06:09:07.442Z,20.33
2019-04-22T06:11:32.242Z,21.60
2019-04-22T06:14:15.014Z,21.11
2019-04-22T06:19:31.784Z,21.63
2019-04-22T06:21:50.845Z,22.47
2019-04-22T06:24:26.408Z,24.14
2019-04-22T06:27:06.420Z,22.13
2019-04-22T06:29:25.312Z,22.91
2019-04-22T06:32:17.898Z,25.33
2019-04-22T06:34:30.810Z,25.95
2019-04-22T06:37:13.054Z,25.70
2019-04-22T06:39:34.580Z,24.48
2019-04-22T06:42:08.060Z,24.98
2019-04-22T06:44:36.310Z,24.99
2019-04-22T06:47:40.015Z,26.46
2019-04-22T06:49:42.169Z,25.58
2019-04-22T06:52:13.959Z,25.79
2019-04-22T06:54:41.601Z,26.10
2019-04-22T06:57:11.618Z,26.76
2019-04-22T06:59:44.014Z,26.90
2019-04-22T07:02:16.597Z,26.89
2019-04-22T07:04:54.056Z,27.69
2019-04-22T07:07:18.680Z,27.48
2019-04-22T07:12:24.764Z,27.42
2019-04-22T07:14:53.506Z,28.42
2019-04-22T07:17:34.375Z,28.78
2019-04-22T07:19:51.159Z,27.74
2019-04-22T07:22:41.183Z,27.95
2019-04-22T07:24:59.117Z,26.00
2019-04-22T07:27:29.230Z,27.43
2019-04-22T07:32:56.386Z,27.61
2019-04-22T07:35:08.719Z,27.77
2019-04-22T07:37:40.534Z,28.91
2019-04-22T07:40:02.211Z,26.54
2019-04-22T07:42:36.429Z,26.27
2019-04-22T07:45:09.923Z,27.12
2019-04-22T07:50:22.960Z,27.36
2019-04-22T07:52:40.829Z,26.46
2019-04-22T07:55:10.352Z,24.90
2019-04-22T07:57:44.358Z,23.42
2019-04-22T08:00:23.080Z,24.90
2019-04-22T08:02:51.656Z,27.11
2019-04-22T08:05:22.319Z,27.73
2019-04-22T08:07:50.567Z,26.24
2019-04-22T08:12:51.928Z,28.27
2019-04-22T08:15:27.341Z,28.43
2019-04-22T08:18:08.655Z,28.10
2019-04-22T08:20:30.794Z,28.80
2019-04-22T08:23:04.806Z,27.98
2019-04-22T08:25:33.476Z,27.69
2019-04-22T08:28:05.709Z,28.25
2019-04-22T08:33:13.709Z,28.43
2019-04-22T08:35:55.168Z,27.98
2019-04-22T08:38:11.512Z,27.09
2019-04-22T08:40:53.818Z,26.12
2019-04-22T08:43:20.290Z,24.98
2019-04-22T08:48:15.083Z,26.62
2019-04-22T08:50:58.432Z,26.61
2019-04-22T08:53:28.620Z,26.47
2019-04-22T08:55:56.042Z,27.47
2019-04-22T09:00:57.246Z,28.82
2019-04-22T09:03:28.402Z,27.11
2019-04-22T09:06:22.402Z,26.12
2019-04-22T09:08:34.218Z,25.67
2019-04-22T09:11:09.148Z,24.67
2019-04-22T09:13:41.734Z,25.48
2019-04-22T09:16:02.232Z,26.94
2019-04-22T09:18:34.500Z,26.34
2019-04-22T09:21:14.187Z,25.51
2019-04-22T09:23:44.407Z,25.84
2019-04-22T09:26:09.453Z,26.25
2019-04-22T09:28:44.983Z,28.17
2019-04-22T09:31:11.787Z,30.76
2019-04-22T09:33:43.119Z,30.08
2019-04-22T09:36:23.045Z,29.01
2019-04-22T09:41:20.916Z,29.53
2019-04-22T09:43:53.468Z,27.75
2019-04-22T09:46:21.618Z,27.38
2019-04-22T09:51:18.700Z,28.24
2019-04-22T09:54:00.763Z,31.60
2019-04-22T09:58:58.558Z,27.80
2019-04-22T10:04:00.596Z,28.24
2019-04-22T10:14:06.105Z,29.59
2019-04-22T10:16:39.440Z,29.94
2019-04-22T10:21:46.312Z,27.94
2019-04-22T10:24:10.542Z,26.69
2019-04-22T10:26:46.952Z,27.38
2019-04-22T10:29:18.291Z,30.54
2019-04-22T10:31:49.760Z,31.30
2019-04-22T10:34:00.126Z,28.47
2019-04-22T10:36:21.485Z,26.48
2019-04-22T10:38:52.425Z,29.83
2019-04-22T10:41:22.933Z,29.33
2019-04-22T10:43:52.952Z,29.54
2019-04-22T10:46:24.198Z,28.52
2019-04-22T10:48:54.577Z,28.35
2019-04-22T10:51:24.470Z,28.64
2019-04-22T10:53:55.550Z,27.73
2019-04-22T10:56:25.379Z,28.56
2019-04-22T10:58:56.188Z,29.22
2019-04-22T11:01:25.793Z,27.90
2019-04-22T11:03:55.321Z,28.42
2019-04-22T11:06:25.356Z,26.77
2019-04-22T11:08:59.798Z,28.82
2019-04-22T11:11:38.473Z,27.76
2019-04-22T11:13:58.075Z,25.93
2019-04-22T11:16:27.927Z,28.32
2019-04-22T11:21:37.740Z,26.71
2019-04-22T11:24:08.531Z,26.91
2019-04-22T11:26:38.850Z,25.01
2019-04-22T11:29:09.947Z,27.76
2019-04-22T11:31:39.610Z,27.61
2019-04-22T11:34:09.243Z,28.58
2019-04-22T11:36:38.963Z,30.01
2019-04-22T11:39:11.102Z,30.72
2019-04-22T11:41:40.341Z,31.57
2019-04-22T11:44:11.400Z,27.68
2019-04-22T11:46:41.149Z,28.43
2019-04-22T11:49:11.965Z,28.70
2019-04-22T11:51:42.139Z,27.71
2019-04-22T11:54:12.576Z,28.33
2019-04-22T11:56:43.040Z,28.90
2019-04-22T11:59:12.932Z,29.36
2019-04-22T12:01:42.698Z,28.71
2019-04-22T12:04:12.204Z,26.30
2019-04-22T12:06:44.508Z,26.72
2019-04-22T12:09:15.577Z,25.98
2019-04-22T12:11:46.771Z,28.87
2019-04-22T12:14:17.741Z,27.45
2019-04-22T12:16:47.760Z,31.53
2019-04-22T12:19:18.852Z,27.77
2019-04-22T12:21:49.128Z,27.35
2019-04-22T12:24:19.312Z,27.90
2019-04-22T12:26:48.868Z,26.54
2019-04-22T12:29:18.390Z,28.00
2019-04-22T12:31:49.348Z,29.97
2019-04-22T12:34:19.621Z,27.88
2019-04-22T12:36:50.748Z,30.10
2019-04-22T12:39:21.339Z,29.14
2019-04-22T12:41:52.125Z,28.95
2019-04-22T12:44:22.144Z,28.71
2019-04-22T12:46:52.292Z,27.16
2019-04-22T12:49:22.489Z,27.60
2019-04-22T12:51:52.058Z,27.92
2019-04-22T12:54:21.638Z,27.27
2019-04-22T12:56:51.456Z,27.34
2019-04-22T12:59:21.501Z,25.47
2019-04-22T13:01:51.254Z,24.67
2019-04-22T13:04:23.159Z,24.01
2019-04-22T13:06:53.443Z,24.10
2019-04-22T13:09:23.277Z,24.79
2019-04-22T13:11:53.017Z,24.82
2019-04-22T13:14:23.163Z,25.30
2019-04-22T13:16:54.850Z,24.62
2019-04-22T13:19:26.453Z,24.39
2019-04-22T13:21:56.449Z,24.00
2019-04-22T13:24:26.119Z,24.06
2019-04-22T13:26:56.830Z,24.27
2019-04-22T13:29:27.570Z,24.27
2019-04-22T13:31:58.469Z,24.41
2019-04-22T13:34:34.732Z,24.86
2019-04-22T13:37:01.134Z,24.09
2019-04-22T13:39:31.307Z,24.06
2019-04-22T13:42:04.614Z,24.12
2019-04-22T13:44:33.465Z,23.90
2019-04-22T13:47:17.470Z,23.88
2019-04-22T13:50:06.036Z,23.79
2019-04-22T13:55:01.941Z,23.75
2019-04-22T13:57:27.534Z,23.67
2019-04-22T13:59:45.942Z,23.84
2019-04-22T14:02:10.784Z,23.17
2019-04-22T14:04:42.926Z,23.32
2019-04-22T14:07:12.691Z,23.71
2019-04-22T14:09:42.414Z,23.46
2019-04-22T14:12:15.451Z,23.65
2019-04-22T14:14:45.443Z,23.79
2019-04-22T14:17:14.369Z,23.48
2019-04-22T14:19:44.762Z,23.37
2019-04-22T14:22:15.819Z,23.22
2019-04-22T14:24:46.757Z,23.53
2019-04-22T14:27:28.219Z,23.39
2019-04-22T14:29:47.626Z,23.52
2019-04-22T14:32:21.836Z,23.46
2019-04-22T14:34:49.085Z,23.58
2019-04-22T14:37:19.020Z,23.76
2019-04-22T14:39:51.572Z,23.80
2019-04-22T14:42:39.486Z,23.52
2019-04-22T14:47:54.065Z,23.15
2019-04-22T14:50:17.687Z,23.04
2019-04-22T14:52:46.974Z,22.83
2019-04-22T14:55:05.777Z,22.90
2019-04-22T14:57:30.337Z,23.01
2019-04-22T15:00:02.301Z,22.81
2019-04-22T15:02:32.058Z,22.66
2019-04-22T15:05:01.557Z,22.45
2019-04-22T15:07:31.061Z,22.58
2019-04-22T15:10:01.825Z,22.99
2019-04-22T15:12:39.109Z,22.69
2019-04-22T15:15:07.049Z,22.52
2019-04-22T15:17:41.002Z,22.76
2019-04-22T15:20:19.633Z,22.30
2019-04-22T15:22:50.526Z,22.47
2019-04-22T15:25:20.707Z,22.42
2019-04-22T15:27:51.169Z,22.53
2019-04-22T15:30:21.410Z,22.66
2019-04-22T15:32:51.575Z,22.34
2019-04-22T15:35:21.252Z,22.27
2019-04-22T15:37:51.150Z,22.29
2019-04-22T15:40:20.771Z,22.23
2019-04-22T15:42:50.753Z,21.95
2019-04-22T15:45:21.963Z,21.72
2019-04-22T15:47:52.393Z,21.78
2019-04-22T15:50:24.547Z,21.73
2019-04-22T15:52:57.155Z,21.73
2019-04-22T15:55:26.803Z,21.73
2019-04-22T15:57:57.699Z,21.58
2019-04-22T16:00:38.340Z,21.65
2019-04-22T16:02:59.622Z,21.71
2019-04-22T16:05:30.306Z,21.54
2019-04-22T16:08:01.287Z,21.63
2019-04-22T16:10:30.892Z,21.42
2019-04-22T16:13:10.582Z,21.04
2019-04-22T16:15:32.135Z,21.12
2019-04-22T16:18:04.747Z,21.28
2019-04-22T16:20:34.362Z,21.18
2019-04-22T16:23:09.738Z,21.03
2019-04-22T16:25:47.587Z,20.91
2019-04-22T16:28:17.499Z,20.95
2019-04-22T16:30:46.998Z,20.62
2019-04-22T16:33:17.313Z,20.56
2019-04-22T16:35:47.104Z,20.62
2019-04-22T16:38:17.026Z,20.56
2019-04-22T16:40:46.768Z,20.54
2019-04-22T16:43:16.612Z,20.57
2019-04-22T16:45:47.561Z,20.51
2019-04-22T16:48:17.725Z,20.28
2019-04-22T16:50:50.463Z,20.04
2019-04-22T16:53:19.022Z,19.97
2019-04-22T16:55:48.928Z,19.73
2019-04-22T16:58:18.950Z,19.70
2019-04-22T17:00:49.708Z,19.68
2019-04-22T17:03:20.682Z,19.60
2019-04-22T17:05:51.999Z,19.58
2019-04-22T17:08:22.351Z,19.60
2019-04-22T17:10:51.896Z,19.58
2019-04-22T17:13:25.379Z,19.57
2019-04-22T17:15:53.938Z,19.65
2019-04-22T17:18:25.349Z,19.38
2019-04-22T17:20:55.123Z,19.19
2019-04-22T17:23:25.511Z,19.13
2019-04-22T17:25:56.602Z,19.07
2019-04-22T17:28:27.631Z,18.98
2019-04-22T17:30:57.575Z,18.83
2019-04-22T17:33:28.743Z,18.65
2019-04-22T17:35:59.131Z,18.62
2019-04-22T17:38:37.174Z,18.34
2019-04-22T17:41:11.480Z,18.41
2019-04-22T17:43:57.338Z,18.40
2019-04-22T17:46:24.822Z,18.16
2019-04-22T17:49:04.251Z,18.01
2019-04-22T17:51:34.566Z,17.99
2019-04-22T17:54:07.022Z,17.79
2019-04-22T17:56:40.627Z,17.77
2019-04-22T17:59:11.988Z,17.77
2019-04-22T18:01:39.771Z,17.68
2019-04-22T18:03:55.540Z,17.53
2019-04-22T18:06:49.055Z,17.57
2019-04-22T18:09:12.487Z,17.38
2019-04-22T18:11:46.272Z,17.38
2019-04-22T18:14:35.066Z,17.36
2019-04-22T18:16:45.906Z,17.08
2019-04-22T18:19:15.360Z,17.02
2019-04-22T18:21:46.109Z,16.89
2019-04-22T18:24:07.730Z,16.90
2019-04-22T18:26:53.489Z,16.88
2019-04-22T18:29:23.937Z,16.63
2019-04-22T18:31:45.660Z,16.39
2019-04-22T18:34:20.964Z,16.71
2019-04-22T18:36:51.016Z,16.51
2019-04-22T18:39:37.066Z,16.58
2019-04-22T18:42:00.582Z,16.20
2019-04-22T18:44:35.078Z,16.03
2019-04-22T18:47:03.768Z,16.25
2019-04-22T18:49:37.654Z,16.19
2019-04-22T18:52:17.393Z,16.06
2019-04-22T18:54:45.770Z,15.80
2019-04-22T18:57:15.671Z,15.79
2019-04-22T18:59:34.638Z,16.32
2019-04-22T19:02:07.822Z,16.05
2019-04-22T19:04:44.634Z,16.06
2019-04-22T19:07:36.763Z,16.01
2019-04-22T19:10:06.330Z,15.86
2019-04-22T19:12:36.365Z,16.24
2019-04-22T19:15:03.505Z,16.19
2019-04-22T19:17:39.252Z,16.12
2019-04-22T19:20:12.791Z,16.16
2019-04-22T19:22:36.514Z,16.45
2019-04-22T19:24:59.886Z,16.46
2019-04-22T19:27:35.980Z,16.19
2019-04-22T19:30:14.074Z,16.38
2019-04-22T19:32:40.421Z,16.25
2019-04-22T19:35:09.421Z,16.26
2019-04-22T19:37:39.813Z,16.26
2019-04-22T19:40:17.560Z,16.15
2019-04-22T19:42:52.635Z,16.12
2019-04-22T19:45:15.744Z,16.18
2019-04-22T19:47:58.529Z,16.03
2019-04-22T19:50:22.750Z,15.98
2019-04-22T19:52:56.639Z,15.86
2019-04-22T19:55:26.579Z,15.60
2019-04-22T19:57:49.149Z,15.66
2019-04-22T20:00:36.578Z,15.78
2019-04-22T20:03:29.702Z,15.83
2019-04-22T20:06:11.380Z,15.62
2019-04-22T20:08:45.883Z,15.75
2019-04-22T20:11:19.726Z,15.62
2019-04-22T20:13:51.559Z,15.35
2019-04-22T20:16:08.633Z,15.46
2019-04-22T20:18:52.287Z,15.31
2019-04-22T20:21:22.621Z,15.13
2019-04-22T20:23:41.753Z,15.44
2019-04-22T20:26:17.937Z,15.25
2019-04-22T20:28:57.652Z,15.26
2019-04-22T20:31:28.936Z,15.48
2019-04-22T20:34:03.489Z,15.39
2019-04-22T20:36:54.973Z,15.38
2019-04-22T20:38:59.569Z,15.08
2019-04-22T20:41:31.516Z,14.99
2019-04-22T20:44:12.514Z,14.70
2019-04-22T20:46:36.246Z,14.50
2019-04-22T20:49:15.196Z,14.50
2019-04-22T20:51:48.720Z,14.66
2019-04-22T20:54:13.080Z,14.99
2019-04-22T20:56:36.828Z,14.81
2019-04-22T20:59:15.086Z,14.88
2019-04-22T21:01:47.659Z,14.74
2019-04-22T21:04:01.617Z,14.55
2019-04-22T21:06:47.717Z,14.33
2019-04-22T21:09:18.314Z,14.64
2019-04-22T21:11:47.953Z,14.55
2019-04-22T21:14:14.759Z,14.45
2019-04-22T21:16:59.194Z,14.19
2019-04-22T21:19:28.084Z,14.03
2019-04-22T21:21:57.780Z,13.82
2019-04-22T21:24:23.662Z,13.82
2019-04-22T21:26:57.045Z,14.07
2019-04-22T21:29:29.428Z,13.93
2019-04-22T21:32:03.068Z,13.64
2019-04-22T21:34:31.709Z,13.51
2019-04-22T21:37:11.468Z,13.54
2019-04-22T21:39:30.432Z,13.62
2019-04-22T21:42:09.396Z,13.30
2019-04-22T21:44:34.020Z,13.95
2019-04-22T21:47:14.520Z,13.35
2019-04-22T21:49:42.776Z,13.17
2019-04-22T21:52:13.447Z,13.04
2019-04-22T21:54:47.051Z,13.06
2019-04-22T21:59:59.501Z,13.03
2019-04-22T22:04:51.210Z,13.20
2019-04-22T22:07:14.391Z,12.97
2019-04-22T22:09:59.752Z,13.36
2019-04-22T22:12:39.768Z,13.17
2019-04-22T22:15:04.289Z,13.15
2019-04-22T22:17:31.015Z,13.03
2019-04-22T22:20:03.451Z,12.73
2019-04-22T22:22:45.412Z,12.86
2019-04-22T22:25:11.111Z,12.77
2019-04-22T22:27:40.915Z,12.55
2019-04-22T22:30:29.402Z,12.29
2019-04-22T22:32:40.473Z,12.19
2019-04-22T22:35:16.793Z,12.20
2019-04-22T22:37:46.614Z,12.54
2019-04-22T22:40:03.491Z,12.31
2019-04-22T22:42:35.783Z,12.01
2019-04-22T22:45:07.838Z,11.89
2019-04-22T22:47:44.565Z,11.74
2019-04-22T22:50:20.075Z,11.64
2019-04-22T22:52:58.959Z,11.54
2019-04-22T22:55:25.332Z,11.58
2019-04-22T22:57:58.349Z,11.63
2019-04-22T23:00:26.063Z,11.90
2019-04-22T23:03:17.083Z,11.61
2019-04-22T23:05:37.729Z,11.48
2019-04-22T23:08:15.727Z,11.49
2019-04-22T23:10:47.681Z,11.33
2019-04-22T23:13:18.987Z,11.17
2019-04-22T23:15:33.061Z,11.10
2019-04-22T23:17:49.996Z,11.07
2019-04-22T23:20:27.713Z,10.88
2019-04-22T23:23:15.799Z,10.82
2019-04-22T23:25:41.552Z,10.91
2019-04-22T23:28:13.367Z,10.84
2019-04-22T23:30:52.850Z,11.03
2019-04-22T23:33:43.753Z,10.83
2019-04-22T23:36:15.040Z,10.63
2019-04-22T23:38:56.652Z,10.69
2019-04-22T23:44:13.800Z,10.43
2019-04-22T23:46:38.458Z,10.39
2019-04-22T23:49:08.560Z,10.41
2019-04-22T23:51:51.635Z,10.25
2019-04-22T23:54:13.108Z,10.08
2019-04-22T23:56:43.526Z,9.96
2019-04-22T23:59:38.278Z,9.88
